sensor_id;sensor_type;location;lat;lon;timestamp;pressure;altitude;pressure_sealevel;temperature;humidity
73151;BME280;61354;50.758;6.106;2023-07-28T00:01:51;98224.16;;;15.87;100.00
73151;BME280;61354;50.758;6.106;2023-07-28T00:04:17;98231.34;;;15.88;100.00
73151;BME280;61354;50.758;6.106;2023-07-28T00:06:42;98237.69;;;15.92;100.00
73151;BME280;61354;50.758;6.106;2023-07-28T00:09:08;98240.13;;;15.90;100.00
73151;BME280;61354;50.758;6.106;2023-07-28T00:11:33;98233.69;;;15.93;100.00
73151;BME280;61354;50.758;6.106;2023-07-28T00:13:59;98238.44;;;15.96;100.00
73151;BME280;61354;50.758;6.106;2023-07-28T00:16:25;98237.25;;;15.97;100.00
73151;BME280;61354;50.758;6.106;2023-07-28T00:18:50;98233.31;;;15.91;100.00
73151;BME280;61354;50.758;6.106;2023-07-28T00:21:16;98227.69;;;15.95;100.00
73151;BME280;61354;50.758;6.106;2023-07-28T00:23:41;98224.09;;;15.94;100.00
73151;BME280;61354;50.758;6.106;2023-07-28T00:26:07;98225.69;;;15.91;100.00
73151;BME280;61354;50.758;6.106;2023-07-28T00:28:32;98222.50;;;15.93;100.00
73151;BME280;61354;50.758;6.106;2023-07-28T00:30:58;98225.31;;;15.93;100.00
73151;BME280;61354;50.758;6.106;2023-07-28T00:33:24;98227.31;;;15.93;100.00
73151;BME280;61354;50.758;6.106;2023-07-28T00:35:49;98223.66;;;15.96;100.00
73151;BME280;61354;50.758;6.106;2023-07-28T00:38:15;98222.88;;;15.95;100.00
73151;BME280;61354;50.758;6.106;2023-07-28T00:40:40;98230.44;;;15.98;100.00
73151;BME280;61354;50.758;6.106;2023-07-28T00:43:06;98219.25;;;15.98;100.00
73151;BME280;61354;50.758;6.106;2023-07-28T00:45:32;98216.06;;;15.96;100.00
73151;BME280;61354;50.758;6.106;2023-07-28T00:47:58;98223.25;;;15.97;100.00
73151;BME280;61354;50.758;6.106;2023-07-28T00:50:25;98220.03;;;15.99;100.00
73151;BME280;61354;50.758;6.106;2023-07-28T00:52:51;98213.63;;;15.98;100.00
73151;BME280;61354;50.758;6.106;2023-07-28T00:55:17;98213.25;;;15.96;100.00
73151;BME280;61354;50.758;6.106;2023-07-28T00:57:43;98206.47;;;15.97;100.00
73151;BME280;61354;50.758;6.106;2023-07-28T01:00:12;98214.84;;;15.97;100.00
73151;BME280;61354;50.758;6.106;2023-07-28T01:02:40;98205.59;;;16.00;100.00
73151;BME280;61354;50.758;6.106;2023-07-28T01:05:06;98217.59;;;16.01;100.00
73151;BME280;61354;50.758;6.106;2023-07-28T01:07:53;98216.00;;;16.00;100.00
73151;BME280;61354;50.758;6.106;2023-07-28T01:10:28;98204.03;;;15.99;100.00
73151;BME280;61354;50.758;6.106;2023-07-28T01:12:55;98206.41;;;16.01;100.00
73151;BME280;61354;50.758;6.106;2023-07-28T01:15:20;98204.03;;;15.99;100.00
73151;BME280;61354;50.758;6.106;2023-07-28T01:17:46;98211.19;;;16.00;100.00
73151;BME280;61354;50.758;6.106;2023-07-28T01:20:12;98210.38;;;16.03;100.00
73151;BME280;61354;50.758;6.106;2023-07-28T01:27:39;98214.72;;;16.08;100.00
73151;BME280;61354;50.758;6.106;2023-07-28T01:30:09;98217.13;;;16.09;100.00
73151;BME280;61354;50.758;6.106;2023-07-28T01:32:35;98211.91;;;16.08;100.00
73151;BME280;61354;50.758;6.106;2023-07-28T01:35:04;98216.72;;;16.07;100.00
73151;BME280;61354;50.758;6.106;2023-07-28T01:37:30;98210.31;;;16.10;100.00
73151;BME280;61354;50.758;6.106;2023-07-28T01:39:56;98205.91;;;16.09;100.00
73151;BME280;61354;50.758;6.106;2023-07-28T01:42:23;98205.06;;;16.12;100.00
73151;BME280;61354;50.758;6.106;2023-07-28T01:44:50;98213.47;;;16.12;100.00
73151;BME280;61354;50.758;6.106;2023-07-28T01:47:15;98210.31;;;16.10;100.00
73151;BME280;61354;50.758;6.106;2023-07-28T01:49:41;98205.53;;;16.07;100.00
73151;BME280;61354;50.758;6.106;2023-07-28T01:52:07;98208.72;;;16.09;100.00
73151;BME280;61354;50.758;6.106;2023-07-28T01:54:32;98208.72;;;16.09;100.00
73151;BME280;61354;50.758;6.106;2023-07-28T01:56:58;98207.88;;;16.12;100.00
73151;BME280;61354;50.758;6.106;2023-07-28T01:59:23;98219.06;;;16.12;100.00
73151;BME280;61354;50.758;6.106;2023-07-28T02:01:49;98207.88;;;16.12;100.00
73151;BME280;61354;50.758;6.106;2023-07-28T02:04:14;98207.06;;;16.12;100.00
73151;BME280;61354;50.758;6.106;2023-07-28T02:06:41;98206.25;;;16.15;100.00
73151;BME280;61354;50.758;6.106;2023-07-28T02:09:07;98218.25;;;16.15;100.00
73151;BME280;61354;50.758;6.106;2023-07-28T02:11:32;98211.06;;;16.14;100.00
73151;BME280;61354;50.758;6.106;2023-07-28T02:13:58;98209.47;;;16.13;100.00
73151;BME280;61354;50.758;6.106;2023-07-28T02:16:24;98214.22;;;16.16;100.00
73151;BME280;61354;50.758;6.106;2023-07-28T02:18:49;98213.03;;;16.18;100.00
73151;BME280;61354;50.758;6.106;2023-07-28T02:21:15;98204.94;;;16.23;100.00
73151;BME280;61354;50.758;6.106;2023-07-28T02:23:41;98216.59;;;16.22;100.00
73151;BME280;61354;50.758;6.106;2023-07-28T02:26:06;98208.59;;;16.20;100.00
73151;BME280;61354;50.758;6.106;2023-07-28T02:28:32;98203.81;;;16.17;100.00
73151;BME280;61354;50.758;6.106;2023-07-28T02:30:57;98209.00;;;16.19;100.00
73151;BME280;61354;50.758;6.106;2023-07-28T02:33:23;98207.03;;;16.15;100.00
73151;BME280;61354;50.758;6.106;2023-07-28T02:35:49;98205.81;;;16.16;100.00
73151;BME280;61354;50.758;6.106;2023-07-28T02:38:14;98206.25;;;16.15;100.00
73151;BME280;61354;50.758;6.106;2023-07-28T02:40:40;98209.41;;;16.17;100.00
73151;BME280;61354;50.758;6.106;2023-07-28T02:43:05;98209.00;;;16.19;100.00
73151;BME280;61354;50.758;6.106;2023-07-28T02:45:31;98199.84;;;16.14;100.00
73151;BME280;61354;50.758;6.106;2023-07-28T02:47:56;98205.81;;;16.16;100.00
73151;BME280;61354;50.758;6.106;2023-07-28T02:50:22;98210.59;;;16.20;100.00
73151;BME280;61354;50.758;6.106;2023-07-28T02:52:48;98206.22;;;16.19;100.00
73151;BME280;61354;50.758;6.106;2023-07-28T02:55:14;98195.84;;;16.15;100.00
73151;BME280;61354;50.758;6.106;2023-07-28T02:57:39;98214.22;;;16.16;100.00
73151;BME280;61354;50.758;6.106;2023-07-28T03:00:05;98219.81;;;16.16;100.00
73151;BME280;61354;50.758;6.106;2023-07-28T03:02:33;98219.00;;;16.20;100.00
73151;BME280;61354;50.758;6.106;2023-07-28T03:04:58;98211.38;;;16.20;100.00
73151;BME280;61354;50.758;6.106;2023-07-28T03:07:24;98223.38;;;16.21;100.00
73151;BME280;61354;50.758;6.106;2023-07-28T03:09:50;98214.97;;;16.21;100.00
73151;BME280;61354;50.758;6.106;2023-07-28T03:12:15;98220.22;;;16.19;100.00
73151;BME280;61354;50.758;6.106;2023-07-28T03:14:41;98220.56;;;16.21;100.00
73151;BME280;61354;50.758;6.106;2023-07-28T03:17:06;98230.59;;;16.22;100.00
73151;BME280;61354;50.758;6.106;2023-07-28T03:19:32;98230.94;;;16.24;100.00
73151;BME280;61354;50.758;6.106;2023-07-28T03:21:57;98228.53;;;16.26;100.00
73151;BME280;61354;50.758;6.106;2023-07-28T03:24:23;98227.78;;;16.22;100.00
73151;BME280;61354;50.758;6.106;2023-07-28T03:26:49;98232.53;;;16.25;100.00
73151;BME280;61354;50.758;6.106;2023-07-28T03:29:14;98232.53;;;16.25;100.00
73151;BME280;61354;50.758;6.106;2023-07-28T03:31:40;98234.19;;;16.22;100.00
73151;BME280;61354;50.758;6.106;2023-07-28T03:34:05;98229.72;;;16.25;100.00
73151;BME280;61354;50.758;6.106;2023-07-28T03:36:31;98237.38;;;16.21;100.00
73151;BME280;61354;50.758;6.106;2023-07-28T03:38:56;98236.56;;;16.24;100.00
73151;BME280;61354;50.758;6.106;2023-07-28T03:41:22;98229.72;;;16.25;100.00
73151;BME280;61354;50.758;6.106;2023-07-28T03:43:48;98229.34;;;16.26;100.00
73151;BME280;61354;50.758;6.106;2023-07-28T03:46:13;98232.94;;;16.27;100.00
73151;BME280;61354;50.758;6.106;2023-07-28T03:48:39;98234.16;;;16.26;100.00
73151;BME280;61354;50.758;6.106;2023-07-28T03:51:04;98243.75;;;16.25;100.00
73151;BME280;61354;50.758;6.106;2023-07-28T03:53:30;98238.53;;;16.27;100.00
73151;BME280;61354;50.758;6.106;2023-07-28T03:55:56;98238.88;;;16.29;100.00
73151;BME280;61354;50.758;6.106;2023-07-28T03:58:26;98236.88;;;16.29;100.00
73151;BME280;61354;50.758;6.106;2023-07-28T04:00:52;98242.91;;;16.28;100.00
73151;BME280;61354;50.758;6.106;2023-07-28T04:03:19;98242.13;;;16.27;100.00
73151;BME280;61354;50.758;6.106;2023-07-28T04:05:44;98246.94;;;16.27;100.00
73151;BME280;61354;50.758;6.106;2023-07-28T04:08:10;98243.69;;;16.28;100.00
73151;BME280;61354;50.758;6.106;2023-07-28T04:10:36;98239.31;;;16.27;100.00
73151;BME280;61354;50.758;6.106;2023-07-28T04:13:01;98231.69;;;16.28;100.00
73151;BME280;61354;50.758;6.106;2023-07-28T04:15:27;98242.91;;;16.28;100.00
73151;BME280;61354;50.758;6.106;2023-07-28T04:17:52;98234.06;;;16.29;100.00
73151;BME280;61354;50.758;6.106;2023-07-28T04:20:18;98240.06;;;16.31;100.00
73151;BME280;61354;50.758;6.106;2023-07-28T04:22:44;98232.09;;;16.30;100.00
73151;BME280;61354;50.758;6.106;2023-07-28T04:25:09;98242.91;;;16.28;100.00
73151;BME280;61354;50.758;6.106;2023-07-28T04:27:35;98252.06;;;16.32;100.00
73151;BME280;61354;50.758;6.106;2023-07-28T04:30:00;98244.50;;;16.29;100.00
73151;BME280;61354;50.758;6.106;2023-07-28T04:32:26;98254.06;;;16.31;100.00
73151;BME280;61354;50.758;6.106;2023-07-28T04:34:52;98252.44;;;16.34;100.00
73151;BME280;61354;50.758;6.106;2023-07-28T04:37:19;98258.03;;;16.34;100.00
73151;BME280;61354;50.758;6.106;2023-07-28T04:39:44;98247.56;;;16.38;100.00
73151;BME280;61354;50.758;6.106;2023-07-28T04:42:10;98264.34;;;16.41;100.00
73151;BME280;61354;50.758;6.106;2023-07-28T04:44:37;98258.78;;;16.38;100.00
73151;BME280;61354;50.758;6.106;2023-07-28T04:47:03;98261.56;;;16.41;100.00
73151;BME280;61354;50.758;6.106;2023-07-28T04:49:29;98267.94;;;16.42;100.00
73151;BME280;61354;50.758;6.106;2023-07-28T04:51:54;98266.00;;;16.39;100.00
73151;BME280;61354;50.758;6.106;2023-07-28T04:54:20;98277.97;;;16.43;100.00
73151;BME280;61354;50.758;6.106;2023-07-28T04:56:46;98276.34;;;16.42;100.00
73151;BME280;61354;50.758;6.106;2023-07-28T04:59:11;98273.16;;;16.44;100.00
73151;BME280;61354;50.758;6.106;2023-07-28T05:01:37;98281.97;;;16.42;100.00
73151;BME280;61354;50.758;6.106;2023-07-28T05:04:02;98281.59;;;16.40;100.00
73151;BME280;61354;50.758;6.106;2023-07-28T05:06:28;98283.94;;;16.45;100.00
73151;BME280;61354;50.758;6.106;2023-07-28T05:08:54;98287.13;;;16.47;100.00
73151;BME280;61354;50.758;6.106;2023-07-28T05:11:19;98280.41;;;16.37;100.00
73151;BME280;61354;50.758;6.106;2023-07-28T05:13:45;98292.34;;;16.45;100.00
73151;BME280;61354;50.758;6.106;2023-07-28T05:16:10;98295.53;;;16.47;100.00
73151;BME280;61354;50.758;6.106;2023-07-28T05:18:36;98293.09;;;16.49;100.00
73151;BME280;61354;50.758;6.106;2023-07-28T05:21:02;98293.88;;;16.50;100.00
73151;BME280;61354;50.758;6.106;2023-07-28T05:23:28;98283.84;;;16.52;100.00
73151;BME280;61354;50.758;6.106;2023-07-28T05:25:53;98293.84;;;16.53;100.00
73151;BME280;61354;50.758;6.106;2023-07-28T05:28:19;98286.97;;;16.58;100.00
73151;BME280;61354;50.758;6.106;2023-07-28T05:30:44;98281.81;;;16.56;100.00
73151;BME280;61354;50.758;6.106;2023-07-28T05:33:10;98292.59;;;16.58;100.00
73151;BME280;61354;50.758;6.106;2023-07-28T05:35:36;98290.56;;;16.58;100.00
73151;BME280;61354;50.758;6.106;2023-07-28T05:38:01;98299.38;;;16.60;100.00
73151;BME280;61354;50.758;6.106;2023-07-28T05:40:27;98302.53;;;16.62;100.00
73151;BME280;61354;50.758;6.106;2023-07-28T05:42:53;98304.97;;;16.60;100.00
73151;BME280;61354;50.758;6.106;2023-07-28T05:45:18;98302.94;;;16.64;100.00
73151;BME280;61354;50.758;6.106;2023-07-28T05:47:44;98309.75;;;16.63;100.00
73151;BME280;61354;50.758;6.106;2023-07-28T05:50:11;98312.91;;;16.65;100.00
73151;BME280;61354;50.758;6.106;2023-07-28T05:52:37;98316.94;;;16.64;100.00
73151;BME280;61354;50.758;6.106;2023-07-28T05:55:06;98304.91;;;16.68;100.00
73151;BME280;61354;50.758;6.106;2023-07-28T05:57:31;98316.88;;;16.72;100.00
73151;BME280;61354;50.758;6.106;2023-07-28T05:59:57;98315.25;;;16.71;100.00
73151;BME280;61354;50.758;6.106;2023-07-28T06:02:22;98320.84;;;16.71;100.00
73151;BME280;61354;50.758;6.106;2023-07-28T06:04:48;98317.25;;;16.74;100.00
73151;BME280;61354;50.758;6.106;2023-07-28T06:07:14;98312.88;;;16.69;100.00
73151;BME280;61354;50.758;6.106;2023-07-28T06:09:39;98318.47;;;16.73;100.00
73151;BME280;61354;50.758;6.106;2023-07-28T06:12:05;98319.25;;;16.73;100.00
73151;BME280;61354;50.758;6.106;2023-07-28T06:14:30;98323.25;;;16.72;100.00
73151;BME280;61354;50.758;6.106;2023-07-28T06:16:56;98327.25;;;16.75;100.00
73151;BME280;61354;50.758;6.106;2023-07-28T06:19:22;98321.63;;;16.75;100.00
73151;BME280;61354;50.758;6.106;2023-07-28T06:21:50;98324.84;;;16.77;100.00
73151;BME280;61354;50.758;6.106;2023-07-28T06:24:16;98328.75;;;16.83;100.00
73151;BME280;61354;50.758;6.106;2023-07-28T06:26:42;98338.03;;;16.80;100.00
73151;BME280;61354;50.758;6.106;2023-07-28T06:29:07;98337.19;;;16.79;100.00
73151;BME280;61354;50.758;6.106;2023-07-28T06:31:33;98334.81;;;16.78;100.00
73151;BME280;61354;50.758;6.106;2023-07-28T06:33:58;98336.06;;;16.77;100.00
73151;BME280;61354;50.758;6.106;2023-07-28T06:36:24;98336.81;;;16.81;100.00
73151;BME280;61354;50.758;6.106;2023-07-28T06:38:49;98339.19;;;16.82;100.00
73151;BME280;61354;50.758;6.106;2023-07-28T06:41:23;98344.84;;;16.75;100.00
73151;BME280;61354;50.758;6.106;2023-07-28T06:43:49;98344.81;;;16.79;100.00
73151;BME280;61354;50.758;6.106;2023-07-28T06:46:14;98349.69;;;16.75;100.00
73151;BME280;61354;50.758;6.106;2023-07-28T06:48:40;98343.94;;;16.85;100.00
73151;BME280;61354;50.758;6.106;2023-07-28T06:51:06;98347.47;;;16.93;100.00
73151;BME280;61354;50.758;6.106;2023-07-28T06:53:32;98355.03;;;16.96;100.00
73151;BME280;61354;50.758;6.106;2023-07-28T06:55:57;98352.59;;;16.98;100.00
73151;BME280;61354;50.758;6.106;2023-07-28T06:58:23;98359.03;;;16.95;100.00
73151;BME280;61354;50.758;6.106;2023-07-28T07:00:48;98361.38;;;17.00;100.00
73151;BME280;61354;50.758;6.106;2023-07-28T07:03:14;98364.56;;;17.02;100.00
73151;BME280;61354;50.758;6.106;2023-07-28T07:05:39;98360.94;;;17.05;100.00
73151;BME280;61354;50.758;6.106;2023-07-28T07:08:05;98362.13;;;17.04;100.00
73151;BME280;61354;50.758;6.106;2023-07-28T07:10:31;98366.53;;;17.05;100.00
73151;BME280;61354;50.758;6.106;2023-07-28T07:12:56;98379.34;;;17.06;100.00
73151;BME280;61354;50.758;6.106;2023-07-28T07:15:22;98379.81;;;17.01;100.00
73151;BME280;61354;50.758;6.106;2023-07-28T07:17:47;98380.56;;;17.05;100.00
73151;BME280;61354;50.758;6.106;2023-07-28T07:20:13;98379.72;;;17.08;100.00
73151;BME280;61354;50.758;6.106;2023-07-28T07:22:40;98385.72;;;17.10;100.00
73151;BME280;61354;50.758;6.106;2023-07-28T07:25:06;98385.22;;;17.15;100.00
73151;BME280;61354;50.758;6.106;2023-07-28T07:27:33;98376.78;;;17.19;100.00
73151;BME280;61354;50.758;6.106;2023-07-28T07:29:58;98375.50;;;17.24;100.00
73151;BME280;61354;50.758;6.106;2023-07-28T07:32:24;98378.59;;;17.33;100.00
73151;BME280;61354;50.758;6.106;2023-07-28T07:34:49;98382.25;;;17.30;100.00
73151;BME280;61354;50.758;6.106;2023-07-28T07:37:15;98377.75;;;17.36;100.00
73151;BME280;61354;50.758;6.106;2023-07-28T07:39:41;98372.78;;;17.47;100.00
73151;BME280;61354;50.758;6.106;2023-07-28T07:42:18;98377.44;;;17.57;100.00
73151;BME280;61354;50.758;6.106;2023-07-28T07:44:43;98377.00;;;17.62;100.00
73151;BME280;61354;50.758;6.106;2023-07-28T07:47:15;98380.50;;;17.67;100.00
73151;BME280;61354;50.758;6.106;2023-07-28T07:49:42;98382.47;;;17.70;100.00
73151;BME280;61354;50.758;6.106;2023-07-28T07:52:08;98387.25;;;17.73;100.00
73151;BME280;61354;50.758;6.106;2023-07-28T07:54:37;98392.41;;;17.78;100.00
73151;BME280;61354;50.758;6.106;2023-07-28T07:57:03;98389.00;;;17.90;100.00
73151;BME280;61354;50.758;6.106;2023-07-28T07:59:29;98386.09;;;17.97;100.00
73151;BME280;61354;50.758;6.106;2023-07-28T08:01:57;98388.19;;;18.17;100.00
73151;BME280;61354;50.758;6.106;2023-07-28T08:04:25;98375.84;;;18.10;100.00
73151;BME280;61354;50.758;6.106;2023-07-28T08:06:53;98373.66;;;18.22;100.00
73151;BME280;61354;50.758;6.106;2023-07-28T08:09:18;98385.13;;;18.31;100.00
73151;BME280;61354;50.758;6.106;2023-07-28T08:11:44;98379.50;;;18.31;100.00
73151;BME280;61354;50.758;6.106;2023-07-28T08:14:10;98385.84;;;18.35;100.00
73151;BME280;61354;50.758;6.106;2023-07-28T08:16:35;98385.97;;;18.28;100.00
73151;BME280;61354;50.758;6.106;2023-07-28T08:19:01;98387.09;;;18.34;100.00
73151;BME280;61354;50.758;6.106;2023-07-28T08:21:26;98385.22;;;18.47;100.00
73151;BME280;61354;50.758;6.106;2023-07-28T08:23:52;98387.97;;;18.51;100.00
73151;BME280;61354;50.758;6.106;2023-07-28T08:26:18;98388.03;;;18.47;100.00
73151;BME280;61354;50.758;6.106;2023-07-28T08:28:43;98390.72;;;18.54;100.00
73151;BME280;61354;50.758;6.106;2023-07-28T08:31:09;98400.75;;;18.55;100.00
73151;BME280;61354;50.758;6.106;2023-07-28T08:33:35;98402.44;;;18.49;100.00
73151;BME280;61354;50.758;6.106;2023-07-28T08:36:00;98407.84;;;18.40;100.00
73151;BME280;61354;50.758;6.106;2023-07-28T08:38:26;98412.38;;;18.34;100.00
73151;BME280;61354;50.758;6.106;2023-07-28T08:40:52;98406.44;;;18.28;100.00
73151;BME280;61354;50.758;6.106;2023-07-28T08:43:18;98410.19;;;18.22;100.00
73151;BME280;61354;50.758;6.106;2023-07-28T08:45:43;98414.88;;;18.28;100.00
73151;BME280;61354;50.758;6.106;2023-07-28T08:48:09;98414.06;;;18.28;100.00
73151;BME280;61354;50.758;6.106;2023-07-28T08:50:35;98416.53;;;18.26;100.00
73151;BME280;61354;50.758;6.106;2023-07-28T08:53:00;98415.78;;;18.22;100.00
73151;BME280;61354;50.758;6.106;2023-07-28T08:55:26;98418.34;;;18.36;100.00
73151;BME280;61354;50.758;6.106;2023-07-28T08:57:51;98415.91;;;18.38;100.00
73151;BME280;61354;50.758;6.106;2023-07-28T09:00:17;98413.69;;;18.49;100.00
73151;BME280;61354;50.758;6.106;2023-07-28T09:02:43;98420.53;;;18.48;100.00
73151;BME280;61354;50.758;6.106;2023-07-28T09:05:19;98428.38;;;18.37;100.00
73151;BME280;61354;50.758;6.106;2023-07-28T09:07:45;98432.41;;;18.36;100.00
73151;BME280;61354;50.758;6.106;2023-07-28T09:10:12;98435.41;;;18.49;100.00
73151;BME280;61354;50.758;6.106;2023-07-28T09:12:44;98435.09;;;18.43;100.00
73151;BME280;61354;50.758;6.106;2023-07-28T09:15:10;98436.19;;;18.49;100.00
73151;BME280;61354;50.758;6.106;2023-07-28T09:17:41;98430.81;;;18.58;100.00
73151;BME280;61354;50.758;6.106;2023-07-28T09:20:13;98431.19;;;18.60;100.00
73151;BME280;61354;50.758;6.106;2023-07-28T09:22:38;98432.75;;;18.61;100.00
73151;BME280;61354;50.758;6.106;2023-07-28T09:25:15;98422.63;;;18.68;100.00
73151;BME280;61354;50.758;6.106;2023-07-28T09:27:49;98429.59;;;18.59;100.00
73151;BME280;61354;50.758;6.106;2023-07-28T09:30:15;98436.69;;;18.68;100.00
73151;BME280;61354;50.758;6.106;2023-07-28T09:32:47;98426.28;;;18.64;100.00
73151;BME280;61354;50.758;6.106;2023-07-28T09:35:13;98426.72;;;18.63;100.00
73151;BME280;61354;50.758;6.106;2023-07-28T09:37:41;98432.28;;;18.67;100.00
73151;BME280;61354;50.758;6.106;2023-07-28T09:40:10;98429.59;;;18.59;100.00
73151;BME280;61354;50.758;6.106;2023-07-28T09:42:39;98428.81;;;18.59;100.00
73151;BME280;61354;50.758;6.106;2023-07-28T09:45:06;98424.03;;;18.56;100.00
73151;BME280;61354;50.758;6.106;2023-07-28T09:47:34;98434.44;;;18.59;100.00
73151;BME280;61354;50.758;6.106;2023-07-28T09:50:02;98434.19;;;18.73;100.00
73151;BME280;61354;50.758;6.106;2023-07-28T09:52:33;98428.94;;;18.52;100.00
73151;BME280;61354;50.758;6.106;2023-07-28T09:54:59;98433.56;;;18.62;100.00
73151;BME280;61354;50.758;6.106;2023-07-28T09:57:29;98435.22;;;18.59;100.00
73151;BME280;61354;50.758;6.106;2023-07-28T09:59:56;98436.81;;;18.60;100.00
73151;BME280;61354;50.758;6.106;2023-07-28T10:02:25;98434.28;;;18.66;100.00
73151;BME280;61354;50.758;6.106;2023-07-28T10:04:52;98435.22;;;18.59;100.00
73151;BME280;61354;50.758;6.106;2023-07-28T10:07:18;98439.50;;;18.68;100.00
73151;BME280;61354;50.758;6.106;2023-07-28T10:09:44;98433.50;;;18.66;100.00
73151;BME280;61354;50.758;6.106;2023-07-28T10:12:18;98438.22;;;18.72;100.00
73151;BME280;61354;50.758;6.106;2023-07-28T10:14:43;98446.22;;;18.74;100.00
73151;BME280;61354;50.758;6.106;2023-07-28T10:17:15;98446.66;;;18.72;100.00
73151;BME280;61354;50.758;6.106;2023-07-28T10:19:41;98445.44;;;18.73;100.00
73151;BME280;61354;50.758;6.106;2023-07-28T10:22:11;98447.84;;;18.75;100.00
73151;BME280;61354;50.758;6.106;2023-07-28T10:24:53;98451.31;;;19.02;100.00
73151;BME280;61354;50.758;6.106;2023-07-28T10:29:59;98454.78;;;19.10;100.00
73151;BME280;61354;50.758;6.106;2023-07-28T10:32:26;98455.50;;;18.94;100.00
73151;BME280;61354;50.758;6.106;2023-07-28T10:35:06;98457.78;;;18.79;100.00
73151;BME280;61354;50.758;6.106;2023-07-28T10:37:45;98455.41;;;18.78;100.00
73151;BME280;61354;50.758;6.106;2023-07-28T10:40:35;98467.69;;;18.87;100.00
73151;BME280;61354;50.758;6.106;2023-07-28T10:43:03;98455.09;;;18.96;100.00
73151;BME280;61354;50.758;6.106;2023-07-28T10:45:32;98457.81;;;18.99;100.00
73151;BME280;61354;50.758;6.106;2023-07-28T10:47:59;98448.81;;;19.08;100.00
73151;BME280;61354;50.758;6.106;2023-07-28T10:50:30;98453.22;;;19.29;100.00
73151;BME280;61354;50.758;6.106;2023-07-28T10:52:56;98447.00;;;19.18;100.00
73151;BME280;61354;50.758;6.106;2023-07-28T10:55:24;98446.09;;;19.24;100.00
73151;BME280;61354;50.758;6.106;2023-07-28T10:57:51;98444.97;;;19.38;100.00
73151;BME280;61354;50.758;6.106;2023-07-28T11:00:18;98449.81;;;19.37;100.00
73151;BME280;61354;50.758;6.106;2023-07-28T11:02:46;98448.72;;;19.51;100.00
73151;BME280;61354;50.758;6.106;2023-07-28T11:07:54;98449.09;;;19.53;100.00
73151;BME280;61354;50.758;6.106;2023-07-28T11:10:20;98440.13;;;19.58;100.00
73151;BME280;61354;50.758;6.106;2023-07-28T11:12:51;98439.75;;;19.56;100.00
73151;BME280;61354;50.758;6.106;2023-07-28T11:15:17;98448.84;;;19.44;100.00
73151;BME280;61354;50.758;6.106;2023-07-28T11:17:49;98448.44;;;19.26;100.00
73151;BME280;61354;50.758;6.106;2023-07-28T11:20:20;98446.16;;;19.21;100.00
73151;BME280;61354;50.758;6.106;2023-07-28T11:22:52;98455.78;;;19.20;100.00
73151;BME280;61354;50.758;6.106;2023-07-28T11:25:18;98452.78;;;19.10;100.00
73151;BME280;61354;50.758;6.106;2023-07-28T11:27:45;98449.09;;;19.13;100.00
73151;BME280;61354;50.758;6.106;2023-07-28T11:30:15;98453.44;;;19.18;100.00
73151;BME280;61354;50.758;6.106;2023-07-28T11:32:46;98450.59;;;19.18;100.00
73151;BME280;61354;50.758;6.106;2023-07-28T11:35:13;98446.16;;;19.21;100.00
73151;BME280;61354;50.758;6.106;2023-07-28T11:37:41;98447.06;;;19.34;100.00
73151;BME280;61354;50.758;6.106;2023-07-28T11:40:08;98446.69;;;19.32;100.00
73151;BME280;61354;50.758;6.106;2023-07-28T11:42:55;98441.25;;;19.25;100.00
73151;BME280;61354;50.758;6.106;2023-07-28T11:45:21;98448.00;;;19.27;100.00
73151;BME280;61354;50.758;6.106;2023-07-28T11:48:05;98443.59;;;19.26;100.00
73151;BME280;61354;50.758;6.106;2023-07-28T11:50:39;98451.84;;;19.17;100.00
73151;BME280;61354;50.758;6.106;2023-07-28T11:53:05;98461.00;;;19.21;100.00
73151;BME280;61354;50.758;6.106;2023-07-28T11:55:38;98457.16;;;19.11;100.00
73151;BME280;61354;50.758;6.106;2023-07-28T11:58:38;98460.25;;;18.97;100.00
73151;BME280;61354;50.758;6.106;2023-07-28T12:04:34;98439.41;;;18.95;100.00
73151;BME280;61354;50.758;6.106;2023-07-28T12:12:27;98453.50;;;19.15;100.00
73151;BME280;61354;50.758;6.106;2023-07-28T12:14:57;98446.72;;;19.12;100.00
73151;BME280;61354;50.758;6.106;2023-07-28T12:17:30;98452.97;;;19.20;100.00
73151;BME280;61354;50.758;6.106;2023-07-28T12:20:04;98466.06;;;19.30;100.00
73151;BME280;61354;50.758;6.106;2023-07-28T12:22:40;98451.84;;;19.37;100.00
73151;BME280;61354;50.758;6.106;2023-07-28T12:25:06;98458.09;;;19.45;100.00
73151;BME280;61354;50.758;6.106;2023-07-28T12:27:32;98444.13;;;19.41;100.00
73151;BME280;61354;50.758;6.106;2023-07-28T12:29:57;98452.41;;;19.48;100.00
73151;BME280;61354;50.758;6.106;2023-07-28T12:32:23;98448.53;;;19.62;100.00
73151;BME280;61354;50.758;6.106;2023-07-28T12:34:49;98447.13;;;19.50;100.00
73151;BME280;61354;50.758;6.106;2023-07-28T12:37:16;98448.38;;;19.49;100.00
73151;BME280;61354;50.758;6.106;2023-07-28T12:39:42;98447.72;;;19.61;100.00
73151;BME280;61354;50.758;6.106;2023-07-28T12:42:08;98454.78;;;19.70;100.00
73151;BME280;61354;50.758;6.106;2023-07-28T12:44:35;98453.13;;;19.52;100.00
73151;BME280;61354;50.758;6.106;2023-07-28T12:47:01;98457.78;;;19.63;100.00
73151;BME280;61354;50.758;6.106;2023-07-28T12:49:27;98457.38;;;19.60;100.00
73151;BME280;61354;50.758;6.106;2023-07-28T12:51:57;98452.84;;;19.67;100.00
73151;BME280;61354;50.758;6.106;2023-07-28T12:54:23;98458.03;;;19.68;100.00
73151;BME280;61354;50.758;6.106;2023-07-28T12:56:49;98451.81;;;19.77;100.00
73151;BME280;61354;50.758;6.106;2023-07-28T12:59:15;98449.69;;;19.81;100.00
73151;BME280;61354;50.758;6.106;2023-07-28T13:01:40;98445.75;;;19.95;100.00
73151;BME280;61354;50.758;6.106;2023-07-28T13:04:06;98445.88;;;19.91;100.00
73151;BME280;61354;50.758;6.106;2023-07-28T13:06:32;98436.97;;;20.09;100.00
73151;BME280;61354;50.758;6.106;2023-07-28T13:08:58;98438.31;;;20.21;100.00